sensor_id;sensor_type;location;lat;lon;timestamp;pressure;altitude;pressure_sealevel;temperature;humidity
54262;BME280;40174;52.364;6.452;2023-03-25T00:01:09;99802.88;;;8.70;100.00
54262;BME280;40174;52.364;6.452;2023-03-25T00:03:41;99814.22;;;8.71;100.00
54262;BME280;40174;52.364;6.452;2023-03-25T00:06:12;99812.41;;;8.71;100.00
54262;BME280;40174;52.364;6.452;2023-03-25T00:08:39;99809.94;;;8.70;100.00
54262;BME280;40174;52.364;6.452;2023-03-25T00:11:06;99809.50;;;8.65;100.00
54262;BME280;40174;52.364;6.452;2023-03-25T00:13:33;99797.84;;;8.67;100.00
54262;BME280;40174;52.364;6.452;2023-03-25T00:16:00;99810.91;;;8.69;100.00
54262;BME280;40174;52.364;6.452;2023-03-25T00:18:28;99812.97;;;8.65;100.00
54262;BME280;40174;52.364;6.452;2023-03-25T00:21:00;99809.78;;;8.62;100.00
54262;BME280;40174;52.364;6.452;2023-03-25T00:23:28;99808.78;;;8.63;100.00
54262;BME280;40174;52.364;6.452;2023-03-25T00:25:55;99812.13;;;8.65;100.00
54262;BME280;40174;52.364;6.452;2023-03-25T00:28:26;99806.16;;;8.63;100.00
54262;BME280;40174;52.364;6.452;2023-03-25T00:30:57;99813.94;;;8.64;100.00
54262;BME280;40174;52.364;6.452;2023-03-25T00:33:24;99806.59;;;8.68;100.00
54262;BME280;40174;52.364;6.452;2023-03-25T00:35:51;99812.72;;;8.68;100.00
54262;BME280;40174;52.364;6.452;2023-03-25T00:38:25;99814.50;;;8.68;100.00
54262;BME280;40174;52.364;6.452;2023-03-25T00:40:58;99811.44;;;8.63;100.00
54262;BME280;40174;52.364;6.452;2023-03-25T00:43:28;99822.94;;;8.62;100.00
54262;BME280;40174;52.364;6.452;2023-03-25T00:45:56;99804.38;;;8.63;100.00
54262;BME280;40174;52.364;6.452;2023-03-25T00:48:23;99807.69;;;8.65;100.00
54262;BME280;40174;52.364;6.452;2023-03-25T00:50:51;99798.41;;;8.61;100.00
54262;BME280;40174;52.364;6.452;2023-03-25T00:53:18;99811.31;;;8.64;100.00
54262;BME280;40174;52.364;6.452;2023-03-25T00:55:46;99814.34;;;8.60;100.00
54262;BME280;40174;52.364;6.452;2023-03-25T00:58:12;99797.13;;;8.56;100.00
54262;BME280;40174;52.364;6.452;2023-03-25T01:00:39;99793.56;;;8.57;100.00
54262;BME280;40174;52.364;6.452;2023-03-25T01:03:05;99791.75;;;8.57;100.00
54262;BME280;40174;52.364;6.452;2023-03-25T01:05:33;99795.50;;;8.55;100.00
54262;BME280;40174;52.364;6.452;2023-03-25T01:08:00;99803.22;;;8.56;100.00
54262;BME280;40174;52.364;6.452;2023-03-25T01:10:28;99796.19;;;8.57;100.00
54262;BME280;40174;52.364;6.452;2023-03-25T01:12:57;99798.94;;;8.55;100.00
54262;BME280;40174;52.364;6.452;2023-03-25T01:15:23;99787.84;;;8.51;100.00
54262;BME280;40174;52.364;6.452;2023-03-25T01:17:50;99786.19;;;8.50;100.00
54262;BME280;40174;52.364;6.452;2023-03-25T01:20:16;99785.09;;;8.53;100.00
54262;BME280;40174;52.364;6.452;2023-03-25T01:22:43;99786.59;;;8.56;100.00
54262;BME280;40174;52.364;6.452;2023-03-25T01:25:10;99789.25;;;8.56;100.00
54262;BME280;40174;52.364;6.452;2023-03-25T01:27:37;99783.97;;;8.56;100.00
54262;BME280;40174;52.364;6.452;2023-03-25T01:30:07;99782.31;;;8.55;100.00
54262;BME280;40174;52.364;6.452;2023-03-25T01:32:34;99777.59;;;8.48;100.00
54262;BME280;40174;52.364;6.452;2023-03-25T01:35:00;99775.53;;;8.52;100.00
54262;BME280;40174;52.364;6.452;2023-03-25T01:37:29;99783.44;;;8.52;100.00
54262;BME280;40174;52.364;6.452;2023-03-25T01:39:58;99775.66;;;8.50;100.00
54262;BME280;40174;52.364;6.452;2023-03-25T01:42:25;99778.16;;;8.52;100.00
54262;BME280;40174;52.364;6.452;2023-03-25T01:45:18;99784.25;;;8.52;100.00
54262;BME280;40174;52.364;6.452;2023-03-25T01:47:48;99773.56;;;8.54;100.00
54262;BME280;40174;52.364;6.452;2023-03-25T01:50:18;99779.53;;;8.56;100.00
54262;BME280;40174;52.364;6.452;2023-03-25T01:52:48;99780.22;;;8.48;100.00
54262;BME280;40174;52.364;6.452;2023-03-25T01:55:17;99781.75;;;8.51;100.00
54262;BME280;40174;52.364;6.452;2023-03-25T01:57:45;99773.97;;;8.49;100.00
54262;BME280;40174;52.364;6.452;2023-03-25T02:00:15;99776.34;;;8.52;100.00
54262;BME280;40174;52.364;6.452;2023-03-25T02:02:46;99779.25;;;8.49;100.00
54262;BME280;40174;52.364;6.452;2023-03-25T02:05:18;99778.84;;;8.54;100.00
54262;BME280;40174;52.364;6.452;2023-03-25T02:07:48;99775.06;;;8.47;100.00
54262;BME280;40174;52.364;6.452;2023-03-25T02:10:15;99791.88;;;8.46;100.00
54262;BME280;40174;52.364;6.452;2023-03-25T02:12:42;99779.09;;;8.41;100.00
54262;BME280;40174;52.364;6.452;2023-03-25T02:15:11;99781.81;;;8.40;100.00
54262;BME280;40174;52.364;6.452;2023-03-25T02:17:50;99774.91;;;8.39;100.00
54262;BME280;40174;52.364;6.452;2023-03-25T02:20:43;99779.94;;;8.42;100.00
54262;BME280;40174;52.364;6.452;2023-03-25T02:26:44;99779.31;;;8.38;100.00
54262;BME280;40174;52.364;6.452;2023-03-25T02:29:28;99770.72;;;8.36;100.00
54262;BME280;40174;52.364;6.452;2023-03-25T02:32:11;99767.25;;;8.36;100.00
54262;BME280;40174;52.364;6.452;2023-03-25T02:35:01;99775.72;;;8.39;100.00
54262;BME280;40174;52.364;6.452;2023-03-25T02:37:53;99774.06;;;8.38;100.00
54262;BME280;40174;52.364;6.452;2023-03-25T02:40:35;99773.34;;;8.36;100.00
54262;BME280;40174;52.364;6.452;2023-03-25T02:43:10;99776.13;;;8.35;100.00
54262;BME280;40174;52.364;6.452;2023-03-25T02:45:42;99782.50;;;8.32;100.00
54262;BME280;40174;52.364;6.452;2023-03-25T02:48:14;99781.66;;;8.31;100.00
54262;BME280;40174;52.364;6.452;2023-03-25T02:50:48;99770.41;;;8.29;100.00
54262;BME280;40174;52.364;6.452;2023-03-25T02:53:24;99774.16;;;8.27;100.00
54262;BME280;40174;52.364;6.452;2023-03-25T02:55:52;99768.78;;;8.28;100.00
54262;BME280;40174;52.364;6.452;2023-03-25T02:58:22;99769.19;;;8.24;100.00
54262;BME280;40174;52.364;6.452;2023-03-25T03:00:50;99776.25;;;8.23;100.00
54262;BME280;40174;52.364;6.452;2023-03-25T03:03:23;99767.78;;;8.20;100.00
54262;BME280;40174;52.364;6.452;2023-03-25T03:05:52;99763.09;;;8.23;100.00
54262;BME280;40174;52.364;6.452;2023-03-25T03:08:30;99760.69;;;8.20;100.00
54262;BME280;40174;52.364;6.452;2023-03-25T03:11:06;99751.44;;;8.16;100.00
54262;BME280;40174;52.364;6.452;2023-03-25T03:13:45;99754.88;;;8.17;100.00
54262;BME280;40174;52.364;6.452;2023-03-25T03:16:21;99754.88;;;8.17;100.00
54262;BME280;40174;52.364;6.452;2023-03-25T03:18:56;99757.94;;;8.22;100.00
54262;BME280;40174;52.364;6.452;2023-03-25T03:21:32;99762.78;;;8.17;100.00
54262;BME280;40174;52.364;6.452;2023-03-25T03:24:09;99744.38;;;8.17;100.00
54262;BME280;40174;52.364;6.452;2023-03-25T03:26:43;99757.38;;;8.18;100.00
54262;BME280;40174;52.364;6.452;2023-03-25T03:29:13;99761.69;;;8.19;100.00
54262;BME280;40174;52.364;6.452;2023-03-25T03:31:44;99759.88;;;8.20;100.00
54262;BME280;40174;52.364;6.452;2023-03-25T03:34:15;99756.69;;;8.16;100.00
54262;BME280;40174;52.364;6.452;2023-03-25T03:36:47;99758.88;;;8.11;100.00
54262;BME280;40174;52.364;6.452;2023-03-25T03:39:19;99758.88;;;8.11;100.00
54262;BME280;40174;52.364;6.452;2023-03-25T03:41:51;99764.41;;;8.08;100.00
54262;BME280;40174;52.364;6.452;2023-03-25T03:44:20;99758.31;;;8.07;100.00
54262;BME280;40174;52.364;6.452;2023-03-25T03:46:52;99770.47;;;7.99;100.00
54262;BME280;40174;52.364;6.452;2023-03-25T03:49:22;99766.88;;;8.00;100.00
54262;BME280;40174;52.364;6.452;2023-03-25T03:51:54;99779.19;;;7.99;100.00
54262;BME280;40174;52.364;6.452;2023-03-25T03:54:25;99774.06;;;7.98;100.00
54262;BME280;40174;52.364;6.452;2023-03-25T03:56:55;99782.09;;;7.96;100.00
54262;BME280;40174;52.364;6.452;2023-03-25T03:59:32;99765.22;;;7.99;100.00
54262;BME280;40174;52.364;6.452;2023-03-25T04:02:05;99767.38;;;7.94;100.00
54262;BME280;40174;52.364;6.452;2023-03-25T04:04:33;99766.97;;;7.88;100.00
54262;BME280;40174;52.364;6.452;2023-03-25T04:07:07;99765.31;;;7.87;100.00
54262;BME280;40174;52.364;6.452;2023-03-25T04:09:41;99767.94;;;7.87;100.00
54262;BME280;40174;52.364;6.452;2023-03-25T04:12:14;99762.41;;;7.90;100.00
54262;BME280;40174;52.364;6.452;2023-03-25T04:14:43;99763.22;;;7.91;100.00
54262;BME280;40174;52.364;6.452;2023-03-25T04:17:10;99762.53;;;7.89;100.00
54262;BME280;40174;52.364;6.452;2023-03-25T04:19:37;99775.81;;;7.87;100.00
54262;BME280;40174;52.364;6.452;2023-03-25T04:22:04;99761.69;;;7.88;100.00
54262;BME280;40174;52.364;6.452;2023-03-25T04:24:31;99755.47;;;7.89;100.00
54262;BME280;40174;52.364;6.452;2023-03-25T04:27:03;99749.06;;;7.82;100.00
54262;BME280;40174;52.364;6.452;2023-03-25T04:29:29;99762.59;;;7.78;100.00
54262;BME280;40174;52.364;6.452;2023-03-25T04:31:56;99751.13;;;7.79;100.00
54262;BME280;40174;52.364;6.452;2023-03-25T04:34:23;99750.31;;;7.78;100.00
54262;BME280;40174;52.364;6.452;2023-03-25T04:36:51;99749.59;;;7.76;100.00
54262;BME280;40174;52.364;6.452;2023-03-25T04:39:18;99741.72;;;7.76;100.00
54262;BME280;40174;52.364;6.452;2023-03-25T04:41:47;99752.94;;;7.78;100.00
54262;BME280;40174;52.364;6.452;2023-03-25T04:44:15;99754.59;;;7.79;100.00
54262;BME280;40174;52.364;6.452;2023-03-25T04:46:42;99749.44;;;7.78;100.00
54262;BME280;40174;52.364;6.452;2023-03-25T04:49:17;99755.41;;;7.80;100.00
54262;BME280;40174;52.364;6.452;2023-03-25T04:51:45;99749.59;;;7.76;100.00
54262;BME280;40174;52.364;6.452;2023-03-25T04:54:14;99752.25;;;7.76;100.00
54262;BME280;40174;52.364;6.452;2023-03-25T04:56:40;99747.09;;;7.75;100.00
54262;BME280;40174;52.364;6.452;2023-03-25T04:59:07;99744.19;;;7.78;100.00
54262;BME280;40174;52.364;6.452;2023-03-25T05:01:36;99729.38;;;7.77;100.00
54262;BME280;40174;52.364;6.452;2023-03-25T05:04:07;99741.72;;;7.76;100.00
54262;BME280;40174;52.364;6.452;2023-03-25T05:06:38;99734.22;;;7.72;100.00
54262;BME280;40174;52.364;6.452;2023-03-25T05:09:08;99741.00;;;7.74;100.00
54262;BME280;40174;52.364;6.452;2023-03-25T05:11:35;99741.13;;;7.73;100.00
54262;BME280;40174;52.364;6.452;2023-03-25T05:14:04;99743.06;;;7.70;100.00
54262;BME280;40174;52.364;6.452;2023-03-25T05:16:31;99732.41;;;7.72;100.00
54262;BME280;40174;52.364;6.452;2023-03-25T05:18:59;99730.50;;;7.74;100.00
54262;BME280;40174;52.364;6.452;2023-03-25T05:21:27;99730.72;;;7.71;100.00
54262;BME280;40174;52.364;6.452;2023-03-25T05:23:54;99727.03;;;7.74;100.00
54262;BME280;40174;52.364;6.452;2023-03-25T05:26:22;99728.97;;;7.72;100.00
54262;BME280;40174;52.364;6.452;2023-03-25T05:28:49;99730.50;;;7.74;100.00
54262;BME280;40174;52.364;6.452;2023-03-25T05:31:16;99724.53;;;7.72;100.00
54262;BME280;40174;52.364;6.452;2023-03-25T05:33:42;99734.34;;;7.70;100.00
54262;BME280;40174;52.364;6.452;2023-03-25T05:36:11;99729.19;;;7.68;100.00
54262;BME280;40174;52.364;6.452;2023-03-25T05:38:39;99757.03;;;7.71;100.00
54262;BME280;40174;52.364;6.452;2023-03-25T05:41:06;99738.63;;;7.71;100.00
54262;BME280;40174;52.364;6.452;2023-03-25T05:43:35;99746.09;;;7.66;100.00
54262;BME280;40174;52.364;6.452;2023-03-25T05:46:02;99747.31;;;7.62;100.00
54262;BME280;40174;52.364;6.452;2023-03-25T05:48:29;99754.75;;;7.57;100.00
54262;BME280;40174;52.364;6.452;2023-03-25T05:50:57;99768.28;;;7.52;100.00
54262;BME280;40174;52.364;6.452;2023-03-25T05:53:25;99790.53;;;7.48;100.00
54262;BME280;40174;52.364;6.452;2023-03-25T05:56:11;99775.34;;;7.52;100.00
54262;BME280;40174;52.364;6.452;2023-03-25T05:58:37;99769.50;;;7.48;100.00
54262;BME280;40174;52.364;6.452;2023-03-25T06:01:04;99776.31;;;7.50;100.00
54262;BME280;40174;52.364;6.452;2023-03-25T06:03:31;99763.00;;;7.42;100.00
54262;BME280;40174;52.364;6.452;2023-03-25T06:06:00;99771.81;;;7.41;100.00
54262;BME280;40174;52.364;6.452;2023-03-25T06:13:48;99772.22;;;7.37;100.00
54262;BME280;40174;52.364;6.452;2023-03-25T06:16:16;99776.31;;;7.29;100.00
54262;BME280;40174;52.364;6.452;2023-03-25T06:18:45;99762.91;;;7.33;100.00
54262;BME280;40174;52.364;6.452;2023-03-25T06:21:16;99768.44;;;7.29;100.00
54262;BME280;40174;52.364;6.452;2023-03-25T06:23:43;99776.19;;;7.31;100.00
54262;BME280;40174;52.364;6.452;2023-03-25T06:26:10;99777.72;;;7.34;100.00
54262;BME280;40174;52.364;6.452;2023-03-25T06:28:36;99778.56;;;7.34;100.00
54262;BME280;40174;52.364;6.452;2023-03-25T06:31:10;99766.84;;;7.38;100.00
54262;BME280;40174;52.364;6.452;2023-03-25T06:33:37;99773.75;;;7.39;100.00
54262;BME280;40174;52.364;6.452;2023-03-25T06:36:04;99788.97;;;7.36;100.00
54262;BME280;40174;52.364;6.452;2023-03-25T06:38:32;99794.78;;;7.39;100.00
54262;BME280;40174;52.364;6.452;2023-03-25T06:41:04;99790.50;;;7.38;100.00
54262;BME280;40174;52.364;6.452;2023-03-25T06:43:32;99792.97;;;7.40;100.00
54262;BME280;40174;52.364;6.452;2023-03-25T06:46:19;99789.28;;;7.42;100.00
54262;BME280;40174;52.364;6.452;2023-03-25T06:49:21;99790.94;;;7.43;100.00
54262;BME280;40174;52.364;6.452;2023-03-25T06:51:48;99777.19;;;7.40;100.00
54262;BME280;40174;52.364;6.452;2023-03-25T06:54:15;99782.34;;;7.41;100.00
54262;BME280;40174;52.364;6.452;2023-03-25T06:56:42;99788.03;;;7.46;100.00
54262;BME280;40174;52.364;6.452;2023-03-25T06:59:09;99797.88;;;7.44;100.00
54262;BME280;40174;52.364;6.452;2023-03-25T07:01:37;99797.03;;;7.44;100.00
54262;BME280;40174;52.364;6.452;2023-03-25T07:04:04;99801.44;;;7.43;100.00
54262;BME280;40174;52.364;6.452;2023-03-25T07:06:31;99798.69;;;7.45;100.00
54262;BME280;40174;52.364;6.452;2023-03-25T07:08:57;99788.34;;;7.53;100.00
54262;BME280;40174;52.364;6.452;2023-03-25T07:11:26;99788.66;;;7.60;100.00
54262;BME280;40174;52.364;6.452;2023-03-25T07:13:54;99783.59;;;7.68;100.00
54262;BME280;40174;52.364;6.452;2023-03-25T07:16:23;99785.03;;;7.72;100.00
54262;BME280;40174;52.364;6.452;2023-03-25T07:18:51;99790.47;;;7.80;100.00
54262;BME280;40174;52.364;6.452;2023-03-25T07:21:19;99786.75;;;7.83;100.00
54262;BME280;40174;52.364;6.452;2023-03-25T07:23:46;99787.88;;;7.90;100.00
54262;BME280;40174;52.364;6.452;2023-03-25T07:26:13;99777.78;;;7.95;100.00
54262;BME280;40174;52.364;6.452;2023-03-25T07:28:40;99801.22;;;7.98;100.00
54262;BME280;40174;52.364;6.452;2023-03-25T07:31:08;99787.66;;;8.03;100.00
54262;BME280;40174;52.364;6.452;2023-03-25T07:33:35;99788.81;;;8.10;100.00
54262;BME280;40174;52.364;6.452;2023-03-25T07:36:05;99796.69;;;8.10;100.00
54262;BME280;40174;52.364;6.452;2023-03-25T07:38:32;99800.03;;;8.12;100.00
54262;BME280;40174;52.364;6.452;2023-03-25T07:40:59;99802.34;;;8.05;100.00
54262;BME280;40174;52.364;6.452;2023-03-25T07:43:29;99797.34;;;8.02;100.00
54262;BME280;40174;52.364;6.452;2023-03-25T07:48:51;99811.44;;;7.91;100.00
54262;BME280;40174;52.364;6.452;2023-03-25T07:51:19;99820.78;;;7.84;100.00
54262;BME280;40174;52.364;6.452;2023-03-25T07:53:46;99802.78;;;7.80;100.00
54262;BME280;40174;52.364;6.452;2023-03-25T07:58:48;99812.53;;;7.68;100.00
54262;BME280;40174;52.364;6.452;2023-03-25T08:01:15;99816.84;;;7.69;100.00
54262;BME280;40174;52.364;6.452;2023-03-25T08:03:43;99819.22;;;7.72;100.00
54262;BME280;40174;52.364;6.452;2023-03-25T08:06:09;99819.22;;;7.72;100.00
54262;BME280;40174;52.364;6.452;2023-03-25T08:08:37;99818.94;;;7.75;100.00
54262;BME280;40174;52.364;6.452;2023-03-25T08:11:05;99823.00;;;7.79;100.00
54262;BME280;40174;52.364;6.452;2023-03-25T08:13:32;99826.75;;;7.86;100.00
54262;BME280;40174;52.364;6.452;2023-03-25T08:15:58;99828.56;;;7.86;100.00
54262;BME280;40174;52.364;6.452;2023-03-25T08:18:25;99815.72;;;7.93;100.00
54262;BME280;40174;52.364;6.452;2023-03-25T08:20:52;99828.50;;;7.97;100.00
54262;BME280;40174;52.364;6.452;2023-03-25T08:23:20;99831.81;;;7.99;100.00
54262;BME280;40174;52.364;6.452;2023-03-25T08:25:49;99828.28;;;8.10;100.00
54262;BME280;40174;52.364;6.452;2023-03-25T08:28:19;99830.22;;;8.08;100.00
54262;BME280;40174;52.364;6.452;2023-03-25T08:30:48;99837.72;;;8.12;100.00
54262;BME280;40174;52.364;6.452;2023-03-25T08:33:20;99833.16;;;8.15;100.00
54262;BME280;40174;52.364;6.452;2023-03-25T08:35:47;99831.78;;;8.20;100.00
54262;BME280;40174;52.364;6.452;2023-03-25T08:38:15;99826.25;;;8.23;100.00
54262;BME280;40174;52.364;6.452;2023-03-25T08:40:43;99832.53;;;8.32;100.00
54262;BME280;40174;52.364;6.452;2023-03-25T08:43:12;99827.28;;;8.32;100.00
54262;BME280;40174;52.364;6.452;2023-03-25T08:45:39;99827.81;;;8.36;100.00
54262;BME280;40174;52.364;6.452;2023-03-25T08:48:06;99827.19;;;8.43;100.00
54262;BME280;40174;52.364;6.452;2023-03-25T08:50:32;99828.03;;;8.44;100.00
54262;BME280;40174;52.364;6.452;2023-03-25T08:52:59;99830.25;;;8.48;100.00
54262;BME280;40174;52.364;6.452;2023-03-25T08:55:26;99849.00;;;8.55;100.00
54262;BME280;40174;52.364;6.452;2023-03-25T08:57:52;99836.09;;;8.52;100.00
54262;BME280;40174;52.364;6.452;2023-03-25T09:00:21;99821.66;;;8.56;100.00
54262;BME280;40174;52.364;6.452;2023-03-25T09:02:49;99840.97;;;8.57;100.00
54262;BME280;40174;52.364;6.452;2023-03-25T09:05:16;99836.00;;;8.63;100.00
54262;BME280;40174;52.364;6.452;2023-03-25T09:07:44;99835.00;;;8.64;100.00
54262;BME280;40174;52.364;6.452;2023-03-25T09:10:12;99841.56;;;8.70;100.00
54262;BME280;40174;52.364;6.452;2023-03-25T09:12:39;99834.78;;;8.77;100.00
54262;BME280;40174;52.364;6.452;2023-03-25T09:15:07;99828.56;;;8.88;100.00
54262;BME280;40174;52.364;6.452;2023-03-25T09:17:35;99842.03;;;9.04;100.00
54262;BME280;40174;52.364;6.452;2023-03-25T09:20:03;99838.00;;;9.10;100.00
54262;BME280;40174;52.364;6.452;2023-03-25T09:22:33;99831.47;;;9.14;100.00
54262;BME280;40174;52.364;6.452;2023-03-25T09:24:59;99840.66;;;9.20;100.00
54262;BME280;40174;52.364;6.452;2023-03-25T09:27:26;99841.34;;;9.22;100.00
54262;BME280;40174;52.364;6.452;2023-03-25T09:29:53;99847.44;;;9.22;100.00
54262;BME280;40174;52.364;6.452;2023-03-25T09:34:56;99859.63;;;8.94;100.00
54262;BME280;40174;52.364;6.452;2023-03-25T09:37:23;99851.41;;;8.87;100.00
54262;BME280;40174;52.364;6.452;2023-03-25T09:39:50;99852.94;;;8.90;100.00
54262;BME280;40174;52.364;6.452;2023-03-25T09:42:37;99842.16;;;9.03;100.00
54262;BME280;40174;52.364;6.452;2023-03-25T09:45:16;99847.56;;;9.11;100.00
54262;BME280;40174;52.364;6.452;2023-03-25T09:47:52;99847.41;;;9.12;100.00
54262;BME280;40174;52.364;6.452;2023-03-25T09:50:22;99854.09;;;9.16;100.00
54262;BME280;40174;52.364;6.452;2023-03-25T09:52:53;99850.78;;;9.24;100.00
54262;BME280;40174;52.364;6.452;2023-03-25T09:55:23;99850.50;;;9.27;100.00
54262;BME280;40174;52.364;6.452;2023-03-25T09:57:55;99844.66;;;9.33;100.00
54262;BME280;40174;52.364;6.452;2023-03-25T10:00:25;99847.56;;;9.50;100.00
54262;BME280;40174;52.364;6.452;2023-03-25T10:02:56;99845.34;;;9.55;100.00
54262;BME280;40174;52.364;6.452;2023-03-25T10:05:38;99851.88;;;9.61;100.00
54262;BME280;40174;52.364;6.452;2023-03-25T10:08:14;99849.94;;;9.63;100.00
54262;BME280;40174;52.364;6.452;2023-03-25T10:10:51;99853.38;;;9.63;100.00
54262;BME280;40174;52.364;6.452;2023-03-25T10:13:24;99853.38;;;9.63;100.00
54262;BME280;40174;52.364;6.452;2023-03-25T10:15:55;99843.41;;;9.67;100.00
54262;BME280;40174;52.364;6.452;2023-03-25T10:18:42;99839.50;;;9.61;100.00
54262;BME280;40174;52.364;6.452;2023-03-25T10:21:12;99836.88;;;9.61;100.00
54262;BME280;40174;52.364;6.452;2023-03-25T10:23:46;99850.06;;;9.71;100.00
54262;BME280;40174;52.364;6.452;2023-03-25T10:26:18;99859.06;;;9.68;100.00
54262;BME280;40174;52.364;6.452;2023-03-25T10:28:51;99857.69;;;9.74;100.00
54262;BME280;40174;52.364;6.452;2023-03-25T10:31:22;99855.34;;;9.71;100.00
54262;BME280;40174;52.364;6.452;2023-03-25T10:33:52;99856.56;;;9.76;100.00
54262;BME280;40174;52.364;6.452;2023-03-25T10:36:28;99852.63;;;9.90;100.00
54262;BME280;40174;52.364;6.452;2023-03-25T10:38:56;99854.84;;;10.05;100.00
54262;BME280;40174;52.364;6.452;2023-03-25T10:41:29;99851.19;;;10.15;100.00
54262;BME280;40174;52.364;6.452;2023-03-25T10:43:56;99845.31;;;10.22;100.00
54262;BME280;40174;52.364;6.452;2023-03-25T10:46:27;99857.00;;;10.19;100.00
54262;BME280;40174;52.364;6.452;2023-03-25T10:48:55;99851.72;;;10.19;100.00
54262;BME280;40174;52.364;6.452;2023-03-25T10:51:25;99866.06;;;10.16;100.00
54262;BME280;40174;52.364;6.452;2023-03-25T10:53:53;99851.00;;;10.27;100.00
54262;BME280;40174;52.364;6.452;2023-03-25T10:56:23;99867.13;;;10.33;100.00
54262;BME280;40174;52.364;6.452;2023-03-25T10:58:52;99868.72;;;10.54;100.00
54262;BME280;40174;52.364;6.452;2023-03-25T11:01:20;99875.75;;;10.91;100.00
54262;BME280;40174;52.364;6.452;2023-03-25T11:03:49;99879.66;;;10.87;100.00
54262;BME280;40174;52.364;6.452;2023-03-25T11:06:23;99878.25;;;10.92;100.00
54262;BME280;40174;52.364;6.452;2023-03-25T11:09:09;99885.06;;;10.95;100.00
54262;BME280;40174;52.364;6.452;2023-03-25T11:11:38;99866.56;;;11.13;100.00
54262;BME280;40174;52.364;6.452;2023-03-25T11:14:05;99871.50;;;11.43;100.00
54262;BME280;40174;52.364;6.452;2023-03-25T11:16:33;99873.13;;;11.62;100.00
54262;BME280;40174;52.364;6.452;2023-03-25T11:19:02;99862.09;;;11.67;100.00
54262;BME280;40174;52.364;6.452;2023-03-25T11:21:31;99865.28;;;11.53;100.00
54262;BME280;40174;52.364;6.452;2023-03-25T11:23:59;99866.78;;;11.55;100.00
54262;BME280;40174;52.364;6.452;2023-03-25T11:26:27;99868.53;;;11.47;100.00
54262;BME280;40174;52.364;6.452;2023-03-25T11:29:00;99866.25;;;11.52;100.00
54262;BME280;40174;52.364;6.452;2023-03-25T11:31:28;99865.41;;;11.69;100.00
54262;BME280;40174;52.364;6.452;2023-03-25T11:34:04;99876.59;;;11.63;100.00
54262;BME280;40174;52.364;6.452;2023-03-25T11:36:34;99874.75;;;11.55;100.00
54262;BME280;40174;52.364;6.452;2023-03-25T11:39:12;99889.84;;;11.27;100.00
54262;BME280;40174;52.364;6.452;2023-03-25T11:41:39;99882.72;;;11.10;100.00
54262;BME280;40174;52.364;6.452;2023-03-25T11:44:07;99885.53;;;11.08;100.00
54262;BME280;40174;52.364;6.452;2023-03-25T11:46:42;99885.00;;;11.05;100.00
54262;BME280;40174;52.364;6.452;2023-03-25T11:49:11;99881.41;;;11.23;100.00
54262;BME280;40174;52.364;6.452;2023-03-25T11:51:43;99887.50;;;11.24;100.00
54262;BME280;40174;52.364;6.452;2023-03-25T11:54:11;99891.97;;;11.41;100.00
54262;BME280;40174;52.364;6.452;2023-03-25T11:56:43;99885.38;;;11.45;100.00
54262;BME280;40174;52.364;6.452;2023-03-25T11:59:18;99881.31;;;11.33;100.00
54262;BME280;40174;52.364;6.452;2023-03-25T12:01:48;99874.44;;;11.22;100.00
54262;BME280;40174;52.364;6.452;2023-03-25T12:04:18;99872.84;;;11.48;100.00
54262;BME280;40174;52.364;6.452;2023-03-25T12:06:55;99873.56;;;11.94;100.00
54262;BME280;40174;52.364;6.452;2023-03-25T12:09:23;99884.88;;;12.30;100.00
54262;BME280;40174;52.364;6.452;2023-03-25T12:11:58;99876.91;;;12.22;100.00
54262;BME280;40174;52.364;6.452;2023-03-25T12:14:39;99890.00;;;11.97;100.00
54262;BME280;40174;52.364;6.452;2023-03-25T12:17:17;99888.09;;;11.72;100.00
54262;BME280;40174;52.364;6.452;2023-03-25T12:19:58;99881.09;;;11.44;100.00
54262;BME280;40174;52.364;6.452;2023-03-25T12:22:40;99864.22;;;11.28;100.00
54262;BME280;40174;52.364;6.452;2023-03-25T12:25:21;99877.28;;;11.65;100.00
54262;BME280;40174;52.364;6.452;2023-03-25T12:27:58;99867.47;;;12.01;100.00
54262;BME280;40174;52.364;6.452;2023-03-25T12:30:39;99879.06;;;12.00;100.00
54262;BME280;40174;52.364;6.452;2023-03-25T12:33:19;99881.59;;;12.10;100.00
54262;BME280;40174;52.364;6.452;2023-03-25T12:35:58;99863.38;;;12.33;100.00
54262;BME280;40174;52.364;6.452;2023-03-25T12:38:40;99850.28;;;12.32;100.00
54262;BME280;40174;52.364;6.452;2023-03-25T12:41:19;99857.63;;;12.12;100.00
54262;BME280;40174;52.364;6.452;2023-03-25T12:43:59;99864.31;;;12.24;100.00
54262;BME280;40174;52.364;6.452;2023-03-25T12:49:41;99850.44;;;12.30;100.00
54262;BME280;40174;52.364;6.452;2023-03-25T12:52:15;99847.00;;;12.38;100.00
54262;BME280;40174;52.364;6.452;2023-03-25T12:54:53;99845.13;;;12.30;100.00
54262;BME280;40174;52.364;6.452;2023-03-25T12:57:31;99849.00;;;12.44;100.00
54262;BME280;40174;52.364;6.452;2023-03-25T13:00:17;99835.28;;;12.48;100.00
54262;BME280;40174;52.364;6.452;2023-03-25T13:03:04;99841.03;;;12.36;100.00
54262;BME280;40174;52.364;6.452;2023-03-25T13:05:38;99835.22;;;12.32;100.00
54262;BME280;40174;52.364;6.452;2023-03-25T13:08:09;99864.53;;;12.04;100.00
54262;BME280;40174;52.364;6.452;2023-03-25T13:10:40;99855.56;;;11.97;100.00
54262;BME280;40174;52.364;6.452;2023-03-25T13:13:12;99846.03;;;11.86;100.00
54262;BME280;40174;52.364;6.452;2023-03-25T13:15:41;99855.09;;;11.84;100.00
54262;BME280;40174;52.364;6.452;2023-03-25T13:18:13;99847.94;;;11.76;100.00
54262;BME280;40174;52.364;6.452;2023-03-25T13:20:44;99839.44;;;12.17;100.00
54262;BME280;40174;52.364;6.452;2023-03-25T13:23:17;99853.28;;;12.37;100.00
54262;BME280;40174;52.364;6.452;2023-03-25T13:25:49;99851.22;;;12.22;100.00
54262;BME280;40174;52.364;6.452;2023-03-25T13:28:21;99868.56;;;12.17;100.00
54262;BME280;40174;52.364;6.452;2023-03-25T13:30:50;99846.44;;;12.26;100.00
54262;BME280;40174;52.364;6.452;2023-03-25T13:33:19;99844.94;;;12.23;100.00
54262;BME280;40174;52.364;6.452;2023-03-25T13:35:52;99839.13;;;12.54;100.00